Decoded Metar for PAJC (CHIGNIK BAY in AK, USA) (IATA:AJC) | Meteo·Mobile Aviation Weather
aviador You're here:

PAJC Decoded Metar

CHIGNIK BAY in AK, USA
Report Time2018-09-18 21:57:00
UTC Time2018-09-18 23:01:55
Flight Rules vfr VFR
Wind270° at 08 kt
W.Decomp.*RWY 20: 4.7 kt HW 6.5 kt RCW
W.Rank270° ranks 4
Current wind is below 270° avg. (10.8)
Visibility9999 m
Phenomena:N/A
Clouds:Overcast 035 Hf
Expected CloudBase > 2,400 ft AGL from Temp-Dew spread
Ceiling3,500 ft
Temp12°C (ISA -3)
Dew Point06°C (67% RH)
AAT8.2°C
QNH1027 hPa
Density Alt-640 ft
Elevation49 ft
Report Wrong Elevation
Raw Report
PAJC 182157Z AUTO 27008KT 10SM OVC035 12/06 A3032 RMK AO2 SLP267
T01220061=

Extra information for PAJC:More info

Metar Taf Metar & Taf Last 4 Metars F.Rules Stats Wind Profile Meteogram Temp Stats Airport Information Weather charts Add Link Nearby VenuesMetar ALERT Operation Metar Decoded Social comments

AIRNAV info for PAJC